Portada
METAR-TAF:

METAR-TAF

Aeropuertos :

Huesca, España

Aeropuerto de Huesca-Pirineos

latitud: 42-04-32N, longitud: 0-18-58W, altitud: 539 m

Observación

El informe se hizo hace 1 hora y 26 minutos, a las 17:00 UTC
Viento calma
Temperatura 24°C
Humedad 44%
Presión 1020 hPa
Visibilidad 10 km o más
sin nubes por debajo de 1500 m y sin presencia de cumulonimbus.

METAR: LEHC 231700Z 00000KT CAVOK 24/11 Q1020...

Hora: 20:26 (18:26 UTC)

Pronóstico

El informe se hizo hace 10 horas y 26 minutos, a las 08:00 UTC
Pronóstico válido del 23 a las 09 UTC al 24 a las 09 UTC
Viento 3 kt con dirección variable
Visibilidad 10 km o más
Escasas nubes a una altura de 2000 ft
Temporalmente
del 23 a las 09 UTC al 23 a las 13 UTC
Viento 10 kt del este

TAF: LEHC 230800Z 2309/2409 VRB03KT 9999 FEW020 TX25/2315Z TN13/2406Z TEMPO 2309/2313 09010KT

Observaciones y pronósticos meteorológicos de más de 4000 aeropuertos (mensajes METAR y TAF).

Los puntos amarillos y rojos representan las estaciones disponibles.

Ponga el ratón en el punto deseado para ver el nombre de la estación.

Haga clic para ver las observaciones y los pronósticos meteorológicos.

Para cambiar el mapa : haga clic en los botones verdes con una cruz de color negro para hacer un zoom, en el botón verde con un guión para alejar o en las flechas verdes para mapas adyacentes.


METAR-TAF: